sensor_id;sensor_type;location;lat;lon;timestamp;pressure;altitude;pressure_sealevel;temperature;humidity
42519;BME280;28147;47.520;18.920;2023-04-16T00:02:16;98099.50;;;11.47;70.09
42519;BME280;28147;47.520;18.920;2023-04-16T00:04:41;98096.31;;;11.28;70.75
42519;BME280;28147;47.520;18.920;2023-04-16T00:07:06;98102.34;;;11.40;70.37
42519;BME280;28147;47.520;18.920;2023-04-16T00:09:32;98092.59;;;11.29;70.75
42519;BME280;28147;47.520;18.920;2023-04-16T00:11:57;98087.75;;;11.26;70.44
42519;BME280;28147;47.520;18.920;2023-04-16T00:14:23;98090.53;;;11.14;70.69
42519;BME280;28147;47.520;18.920;2023-04-16T00:16:48;98090.34;;;11.21;70.95
42519;BME280;28147;47.520;18.920;2023-04-16T00:19:13;98088.72;;;11.20;71.37
42519;BME280;28147;47.520;18.920;2023-04-16T00:21:38;98095.38;;;11.39;70.72
42519;BME280;28147;47.520;18.920;2023-04-16T00:24:04;98095.06;;;11.36;71.03
42519;BME280;28147;47.520;18.920;2023-04-16T00:26:29;98098.84;;;11.18;71.83
42519;BME280;28147;47.520;18.920;2023-04-16T00:28:54;98088.34;;;11.11;72.10
42519;BME280;28147;47.520;18.920;2023-04-16T00:31:27;98088.50;;;11.05;72.79
42519;BME280;28147;47.520;18.920;2023-04-16T00:33:52;98091.56;;;11.13;72.64
42519;BME280;28147;47.520;18.920;2023-04-16T00:36:18;98095.84;;;10.98;73.07
42519;BME280;28147;47.520;18.920;2023-04-16T00:38:43;98098.75;;;11.13;72.96
42519;BME280;28147;47.520;18.920;2023-04-16T00:41:08;98095.38;;;11.01;73.35
42519;BME280;28147;47.520;18.920;2023-04-16T00:43:33;98097.72;;;11.14;73.14
42519;BME280;28147;47.520;18.920;2023-04-16T00:45:59;98093.00;;;11.21;72.79
42519;BME280;28147;47.520;18.920;2023-04-16T00:48:24;98091.16;;;11.22;72.83
42519;BME280;28147;47.520;18.920;2023-04-16T00:50:52;98094.47;;;11.12;73.68
42519;BME280;28147;47.520;18.920;2023-04-16T00:53:19;98098.59;;;11.19;73.36
42519;BME280;28147;47.520;18.920;2023-04-16T00:55:44;98099.84;;;11.34;73.04
42519;BME280;28147;47.520;18.920;2023-04-16T00:58:09;98100.50;;;11.41;72.59
42519;BME280;28147;47.520;18.920;2023-04-16T01:00:35;98091.25;;;11.49;71.85
42519;BME280;28147;47.520;18.920;2023-04-16T01:03:00;98089.25;;;11.39;72.65
42519;BME280;28147;47.520;18.920;2023-04-16T01:05:25;98092.84;;;11.28;72.58
42519;BME280;28147;47.520;18.920;2023-04-16T01:07:51;98091.06;;;11.16;73.32
42519;BME280;28147;47.520;18.920;2023-04-16T01:10:16;98099.00;;;11.11;73.83
42519;BME280;28147;47.520;18.920;2023-04-16T01:12:42;98094.44;;;11.29;73.41
42519;BME280;28147;47.520;18.920;2023-04-16T01:15:08;98100.72;;;11.39;72.59
42519;BME280;28147;47.520;18.920;2023-04-16T01:17:33;98107.69;;;11.40;72.48
42519;BME280;28147;47.520;18.920;2023-04-16T01:19:58;98102.09;;;11.42;72.33
42519;BME280;28147;47.520;18.920;2023-04-16T01:22:24;98101.47;;;11.35;72.54
42519;BME280;28147;47.520;18.920;2023-04-16T01:24:49;98098.53;;;11.36;72.46
42519;BME280;28147;47.520;18.920;2023-04-16T01:27:15;98103.91;;;11.58;71.63
42519;BME280;28147;47.520;18.920;2023-04-16T01:29:40;98107.94;;;11.61;71.61
42519;BME280;28147;47.520;18.920;2023-04-16T01:32:05;98108.16;;;11.37;72.33
42519;BME280;28147;47.520;18.920;2023-04-16T01:34:31;98102.38;;;11.24;72.89
42519;BME280;28147;47.520;18.920;2023-04-16T01:36:56;98098.31;;;11.38;72.48
42519;BME280;28147;47.520;18.920;2023-04-16T01:39:21;98101.00;;;11.21;73.11
42519;BME280;28147;47.520;18.920;2023-04-16T01:41:46;98102.41;;;10.90;74.29
42519;BME280;28147;47.520;18.920;2023-04-16T01:44:12;98098.84;;;11.01;73.85
42519;BME280;28147;47.520;18.920;2023-04-16T01:46:37;98106.41;;;11.09;73.59
42519;BME280;28147;47.520;18.920;2023-04-16T01:49:03;98104.56;;;11.10;73.60
42519;BME280;28147;47.520;18.920;2023-04-16T01:51:28;98105.53;;;10.87;74.30
42519;BME280;28147;47.520;18.920;2023-04-16T01:53:54;98116.22;;;11.04;73.88
42519;BME280;28147;47.520;18.920;2023-04-16T01:56:19;98108.78;;;10.89;74.21
42519;BME280;28147;47.520;18.920;2023-04-16T01:58:46;98112.97;;;10.85;74.28
42519;BME280;28147;47.520;18.920;2023-04-16T02:01:12;98111.63;;;10.99;73.79
42519;BME280;28147;47.520;18.920;2023-04-16T02:03:37;98112.47;;;11.05;73.21
42519;BME280;28147;47.520;18.920;2023-04-16T02:06:02;98118.38;;;11.07;72.87
42519;BME280;28147;47.520;18.920;2023-04-16T02:08:28;98113.38;;;11.10;72.75
42519;BME280;28147;47.520;18.920;2023-04-16T02:10:54;98112.56;;;10.93;73.00
42519;BME280;28147;47.520;18.920;2023-04-16T02:13:20;98114.50;;;10.81;73.24
42519;BME280;28147;47.520;18.920;2023-04-16T02:15:46;98111.19;;;10.74;73.83
42519;BME280;28147;47.520;18.920;2023-04-16T02:18:12;98112.34;;;10.78;73.99
42519;BME280;28147;47.520;18.920;2023-04-16T02:20:41;98108.47;;;10.68;74.42
42519;BME280;28147;47.520;18.920;2023-04-16T02:23:06;98105.56;;;10.70;74.14
42519;BME280;28147;47.520;18.920;2023-04-16T02:25:32;98107.97;;;10.88;73.44
42519;BME280;28147;47.520;18.920;2023-04-16T02:27:57;98116.13;;;10.82;73.76
42519;BME280;28147;47.520;18.920;2023-04-16T02:30:22;98115.97;;;10.88;73.56
42519;BME280;28147;47.520;18.920;2023-04-16T02:32:48;98127.69;;;10.87;73.42
42519;BME280;28147;47.520;18.920;2023-04-16T02:35:13;98117.56;;;10.89;73.15
42519;BME280;28147;47.520;18.920;2023-04-16T02:37:38;98123.56;;;10.96;72.71
42519;BME280;28147;47.520;18.920;2023-04-16T02:40:05;98124.34;;;10.97;72.37
42519;BME280;28147;47.520;18.920;2023-04-16T02:42:30;98116.78;;;10.72;73.53
42519;BME280;28147;47.520;18.920;2023-04-16T02:44:55;98128.28;;;10.94;72.95
42519;BME280;28147;47.520;18.920;2023-04-16T02:47:20;98117.25;;;10.86;73.08
42519;BME280;28147;47.520;18.920;2023-04-16T02:49:46;98126.53;;;10.83;73.04
42519;BME280;28147;47.520;18.920;2023-04-16T02:52:11;98128.31;;;10.78;72.80
42519;BME280;28147;47.520;18.920;2023-04-16T02:54:36;98126.53;;;11.00;72.43
42519;BME280;28147;47.520;18.920;2023-04-16T02:57:02;98123.56;;;10.96;72.10
42519;BME280;28147;47.520;18.920;2023-04-16T02:59:27;98129.84;;;10.90;72.49
42519;BME280;28147;47.520;18.920;2023-04-16T03:01:52;98133.31;;;10.74;73.07
42519;BME280;28147;47.520;18.920;2023-04-16T03:04:17;98130.97;;;10.78;73.04
42519;BME280;28147;47.520;18.920;2023-04-16T03:06:43;98125.44;;;10.51;74.22
42519;BME280;28147;47.520;18.920;2023-04-16T03:09:08;98123.44;;;10.58;74.52
42519;BME280;28147;47.520;18.920;2023-04-16T03:11:33;98130.47;;;10.64;73.91
42519;BME280;28147;47.520;18.920;2023-04-16T03:13:59;98134.84;;;10.70;73.37
42519;BME280;28147;47.520;18.920;2023-04-16T03:16:24;98128.28;;;10.94;72.71
42519;BME280;28147;47.520;18.920;2023-04-16T03:18:50;98135.16;;;10.90;72.63
42519;BME280;28147;47.520;18.920;2023-04-16T03:21:15;98135.97;;;10.91;72.26
42519;BME280;28147;47.520;18.920;2023-04-16T03:23:40;98137.75;;;10.68;72.89
42519;BME280;28147;47.520;18.920;2023-04-16T03:26:06;98134.44;;;10.78;72.91
42519;BME280;28147;47.520;18.920;2023-04-16T03:28:31;98132.16;;;10.87;72.55
42519;BME280;28147;47.520;18.920;2023-04-16T03:30:56;98147.59;;;10.85;72.74
42519;BME280;28147;47.520;18.920;2023-04-16T03:33:21;98141.00;;;10.87;72.59
42519;BME280;28147;47.520;18.920;2023-04-16T03:35:53;98146.38;;;10.92;72.20
42519;BME280;28147;47.520;18.920;2023-04-16T03:38:18;98163.25;;;10.81;71.94
42519;BME280;28147;47.520;18.920;2023-04-16T03:40:44;98170.22;;;10.99;71.33
42519;BME280;28147;47.520;18.920;2023-04-16T03:43:09;98178.13;;;11.11;71.04
42519;BME280;28147;47.520;18.920;2023-04-16T03:45:34;98183.78;;;11.14;70.67
42519;BME280;28147;47.520;18.920;2023-04-16T03:47:59;98191.19;;;11.12;70.69
42519;BME280;28147;47.520;18.920;2023-04-16T03:50:25;98188.13;;;11.20;70.14
42519;BME280;28147;47.520;18.920;2023-04-16T03:52:50;98186.03;;;11.23;69.92
42519;BME280;28147;47.520;18.920;2023-04-16T03:55:15;98195.31;;;11.20;70.08
42519;BME280;28147;47.520;18.920;2023-04-16T03:57:41;98191.44;;;11.11;70.65
42519;BME280;28147;47.520;18.920;2023-04-16T04:00:06;98196.53;;;11.29;69.91
42519;BME280;28147;47.520;18.920;2023-04-16T04:02:32;98200.38;;;11.05;71.01
42519;BME280;28147;47.520;18.920;2023-04-16T04:04:57;98201.44;;;11.04;71.15
42519;BME280;28147;47.520;18.920;2023-04-16T04:07:23;98198.22;;;11.18;70.63
42519;BME280;28147;47.520;18.920;2023-04-16T04:09:48;98202.09;;;11.28;69.96
42519;BME280;28147;47.520;18.920;2023-04-16T04:12:13;98195.63;;;11.40;69.55
42519;BME280;28147;47.520;18.920;2023-04-16T04:14:38;98199.50;;;11.16;70.31
42519;BME280;28147;47.520;18.920;2023-04-16T04:17:04;98192.63;;;11.20;70.31
42519;BME280;28147;47.520;18.920;2023-04-16T04:19:29;98201.88;;;11.29;70.05
42519;BME280;28147;47.520;18.920;2023-04-16T04:21:55;98200.97;;;11.24;70.27
42519;BME280;28147;47.520;18.920;2023-04-16T04:24:20;98190.31;;;11.24;70.12
42519;BME280;28147;47.520;18.920;2023-04-16T04:26:45;98184.97;;;11.07;71.04
42519;BME280;28147;47.520;18.920;2023-04-16T04:29:11;98184.00;;;10.96;72.11
42519;BME280;28147;47.520;18.920;2023-04-16T04:31:37;98190.53;;;10.88;72.52
42519;BME280;28147;47.520;18.920;2023-04-16T04:34:02;98200.06;;;11.01;72.32
42519;BME280;28147;47.520;18.920;2023-04-16T04:36:27;98200.72;;;11.25;71.88
42519;BME280;28147;47.520;18.920;2023-04-16T04:38:52;98207.03;;;11.19;71.70
42519;BME280;28147;47.520;18.920;2023-04-16T04:41:18;98210.22;;;11.21;71.46
42519;BME280;28147;47.520;18.920;2023-04-16T04:43:43;98215.00;;;11.36;71.05
42519;BME280;28147;47.520;18.920;2023-04-16T04:46:08;98224.69;;;11.42;70.90
42519;BME280;28147;47.520;18.920;2023-04-16T04:48:33;98223.31;;;11.56;70.32
42519;BME280;28147;47.520;18.920;2023-04-16T04:50:59;98222.19;;;12.08;69.10
42519;BME280;28147;47.520;18.920;2023-04-16T04:53:25;98222.31;;;11.79;69.58
42519;BME280;28147;47.520;18.920;2023-04-16T04:55:50;98216.03;;;12.07;68.94
42519;BME280;28147;47.520;18.920;2023-04-16T04:58:15;98226.53;;;12.14;68.34
42519;BME280;28147;47.520;18.920;2023-04-16T05:00:41;98226.34;;;11.99;68.26
42519;BME280;28147;47.520;18.920;2023-04-16T05:03:08;98230.22;;;11.74;68.71
42519;BME280;28147;47.520;18.920;2023-04-16T05:05:34;98231.94;;;11.80;68.96
42519;BME280;28147;47.520;18.920;2023-04-16T05:08:00;98224.28;;;11.84;68.91
42519;BME280;28147;47.520;18.920;2023-04-16T05:10:25;98221.69;;;11.72;68.93
42519;BME280;28147;47.520;18.920;2023-04-16T05:12:50;98221.41;;;11.52;70.08
42519;BME280;28147;47.520;18.920;2023-04-16T05:15:16;98223.88;;;11.75;69.39
42519;BME280;28147;47.520;18.920;2023-04-16T05:17:41;98226.69;;;11.85;68.54
42519;BME280;28147;47.520;18.920;2023-04-16T05:20:07;98226.34;;;11.99;67.99
42519;BME280;28147;47.520;18.920;2023-04-16T05:22:33;98227.63;;;11.96;68.38
42519;BME280;28147;47.520;18.920;2023-04-16T05:24:58;98226.88;;;12.01;68.29
42519;BME280;28147;47.520;18.920;2023-04-16T05:27:23;98239.06;;;11.91;69.20
42519;BME280;28147;47.520;18.920;2023-04-16T05:29:48;98235.41;;;11.98;69.08
42519;BME280;28147;47.520;18.920;2023-04-16T05:32:14;98239.56;;;12.10;68.40
42519;BME280;28147;47.520;18.920;2023-04-16T05:34:39;98241.63;;;12.25;68.03
42519;BME280;28147;47.520;18.920;2023-04-16T05:37:04;98240.34;;;12.28;67.31
42519;BME280;28147;47.520;18.920;2023-04-16T05:39:30;98248.31;;;12.06;68.62
42519;BME280;28147;47.520;18.920;2023-04-16T05:41:55;98249.81;;;12.18;68.26
42519;BME280;28147;47.520;18.920;2023-04-16T05:44:20;98252.47;;;12.18;68.65
42519;BME280;28147;47.520;18.920;2023-04-16T05:46:45;98261.56;;;12.01;68.35
42519;BME280;28147;47.520;18.920;2023-04-16T05:49:11;98257.13;;;12.06;68.62
42519;BME280;28147;47.520;18.920;2023-04-16T05:51:36;98244.28;;;12.25;68.07
42519;BME280;28147;47.520;18.920;2023-04-16T05:54:01;98247.09;;;12.35;67.05
42519;BME280;28147;47.520;18.920;2023-04-16T05:56:26;98250.94;;;12.45;67.08
42519;BME280;28147;47.520;18.920;2023-04-16T05:58:52;98241.38;;;12.49;67.21
42519;BME280;28147;47.520;18.920;2023-04-16T06:01:17;98252.63;;;12.29;67.20
42519;BME280;28147;47.520;18.920;2023-04-16T06:03:42;98250.50;;;12.31;66.86
42519;BME280;28147;47.520;18.920;2023-04-16T06:06:09;98254.66;;;12.44;66.62
42519;BME280;28147;47.520;18.920;2023-04-16T06:08:34;98250.31;;;12.37;66.16
42519;BME280;28147;47.520;18.920;2023-04-16T06:10:59;98258.88;;;12.17;66.71
42519;BME280;28147;47.520;18.920;2023-04-16T06:13:25;98256.38;;;12.11;67.51
42519;BME280;28147;47.520;18.920;2023-04-16T06:15:50;98267.38;;;12.14;69.00
42519;BME280;28147;47.520;18.920;2023-04-16T06:18:15;98260.25;;;12.20;67.63
42519;BME280;28147;47.520;18.920;2023-04-16T06:20:41;98258.91;;;12.39;67.17
42519;BME280;28147;47.520;18.920;2023-04-16T06:23:06;98263.03;;;12.30;67.10
42519;BME280;28147;47.520;18.920;2023-04-16T06:25:31;98257.06;;;12.45;66.90
42519;BME280;28147;47.520;18.920;2023-04-16T06:27:56;98266.34;;;12.37;66.96
42519;BME280;28147;47.520;18.920;2023-04-16T06:30:22;98265.66;;;12.25;67.34
42519;BME280;28147;47.520;18.920;2023-04-16T06:32:47;98262.28;;;12.35;67.31
42519;BME280;28147;47.520;18.920;2023-04-16T06:35:13;98264.22;;;12.39;66.94
42519;BME280;28147;47.520;18.920;2023-04-16T06:37:38;98263.59;;;12.32;67.67
42519;BME280;28147;47.520;18.920;2023-04-16T06:40:03;98263.66;;;12.37;67.08
42519;BME280;28147;47.520;18.920;2023-04-16T06:42:29;98267.13;;;12.60;66.41
42519;BME280;28147;47.520;18.920;2023-04-16T06:44:54;98266.19;;;12.71;65.83
42519;BME280;28147;47.520;18.920;2023-04-16T06:47:20;98265.75;;;12.79;66.48
42519;BME280;28147;47.520;18.920;2023-04-16T06:49:45;98260.81;;;12.66;66.15
42519;BME280;28147;47.520;18.920;2023-04-16T06:52:11;98263.94;;;13.12;65.38
42519;BME280;28147;47.520;18.920;2023-04-16T06:54:36;98267.88;;;13.31;66.58
42519;BME280;28147;47.520;18.920;2023-04-16T06:57:01;98263.19;;;13.44;64.53
42519;BME280;28147;47.520;18.920;2023-04-16T06:59:27;98263.88;;;13.66;65.46
42519;BME280;28147;47.520;18.920;2023-04-16T07:01:52;98264.34;;;13.95;64.27
42519;BME280;28147;47.520;18.920;2023-04-16T07:04:17;98258.78;;;14.02;64.07
42519;BME280;28147;47.520;18.920;2023-04-16T07:06:43;98266.25;;;14.00;63.50
42519;BME280;28147;47.520;18.920;2023-04-16T07:09:11;98267.63;;;14.07;64.19
42519;BME280;28147;47.520;18.920;2023-04-16T07:11:36;98260.53;;;14.28;63.27
42519;BME280;28147;47.520;18.920;2023-04-16T07:14:02;98270.63;;;14.16;63.27
42519;BME280;28147;47.520;18.920;2023-04-16T07:16:27;98270.72;;;14.36;62.70
42519;BME280;28147;47.520;18.920;2023-04-16T07:18:52;98280.47;;;14.58;62.57
42519;BME280;28147;47.520;18.920;2023-04-16T07:21:18;98278.16;;;14.24;63.67
42519;BME280;28147;47.520;18.920;2023-04-16T07:23:43;98271.53;;;14.42;63.12
42519;BME280;28147;47.520;18.920;2023-04-16T07:26:09;98266.97;;;14.38;62.12
42519;BME280;28147;47.520;18.920;2023-04-16T07:28:35;98273.22;;;14.53;63.29
42519;BME280;28147;47.520;18.920;2023-04-16T07:31:01;98270.84;;;14.57;62.13
42519;BME280;28147;47.520;18.920;2023-04-16T07:33:26;98274.00;;;14.49;63.84
42519;BME280;28147;47.520;18.920;2023-04-16T07:35:51;98278.03;;;14.04;62.82
42519;BME280;28147;47.520;18.920;2023-04-16T07:38:16;98284.50;;;14.55;61.44
42519;BME280;28147;47.520;18.920;2023-04-16T07:40:42;98280.31;;;14.95;60.68
42519;BME280;28147;47.520;18.920;2023-04-16T07:43:07;98277.88;;;14.78;59.15
42519;BME280;28147;47.520;18.920;2023-04-16T07:45:33;98269.28;;;14.66;60.07
42519;BME280;28147;47.520;18.920;2023-04-16T07:47:58;98273.75;;;14.50;60.80
42519;BME280;28147;47.520;18.920;2023-04-16T07:50:23;98275.59;;;14.45;61.25
42519;BME280;28147;47.520;18.920;2023-04-16T07:52:49;98278.59;;;14.53;61.62
42519;BME280;28147;47.520;18.920;2023-04-16T07:55:14;98277.59;;;14.75;60.16
42519;BME280;28147;47.520;18.920;2023-04-16T07:57:40;98282.84;;;14.49;60.95
42519;BME280;28147;47.520;18.920;2023-04-16T08:00:05;98278.69;;;14.84;60.19
42519;BME280;28147;47.520;18.920;2023-04-16T08:02:31;98279.56;;;15.10;59.76
42519;BME280;28147;47.520;18.920;2023-04-16T08:04:57;98285.94;;;14.83;60.49
42519;BME280;28147;47.520;18.920;2023-04-16T08:07:22;98283.31;;;14.36;61.14
42519;BME280;28147;47.520;18.920;2023-04-16T08:09:47;98286.19;;;14.24;60.71
42519;BME280;28147;47.520;18.920;2023-04-16T08:12:13;98284.56;;;14.18;60.55
42519;BME280;28147;47.520;18.920;2023-04-16T08:14:40;98291.44;;;14.04;61.11
42519;BME280;28147;47.520;18.920;2023-04-16T08:17:05;98284.16;;;13.94;61.38
42519;BME280;28147;47.520;18.920;2023-04-16T08:19:31;98287.09;;;13.98;61.54
42519;BME280;28147;47.520;18.920;2023-04-16T08:21:56;98285.84;;;13.68;62.55
42519;BME280;28147;47.520;18.920;2023-04-16T08:24:21;98294.88;;;13.99;61.81
42519;BME280;28147;47.520;18.920;2023-04-16T08:26:47;98291.00;;;14.22;62.32
42519;BME280;28147;47.520;18.920;2023-04-16T08:29:12;98295.28;;;14.18;61.19
42519;BME280;28147;47.520;18.920;2023-04-16T08:31:37;98288.88;;;13.82;61.79
42519;BME280;28147;47.520;18.920;2023-04-16T08:34:02;98287.28;;;13.86;62.15
42519;BME280;28147;47.520;18.920;2023-04-16T08:36:28;98291.81;;;14.28;61.34
42519;BME280;28147;47.520;18.920;2023-04-16T08:38:53;98298.38;;;14.47;60.98
42519;BME280;28147;47.520;18.920;2023-04-16T08:41:18;98292.25;;;14.52;61.14
42519;BME280;28147;47.520;18.920;2023-04-16T08:43:45;98299.47;;;14.04;60.97
42519;BME280;28147;47.520;18.920;2023-04-16T08:46:12;98306.72;;;14.08;60.74
42519;BME280;28147;47.520;18.920;2023-04-16T08:48:39;98312.91;;;14.56;59.21
42519;BME280;28147;47.520;18.920;2023-04-16T08:51:06;98311.06;;;14.67;59.16
42519;BME280;28147;47.520;18.920;2023-04-16T08:53:51;98314.38;;;14.90;59.46
42519;BME280;28147;47.520;18.920;2023-04-16T08:56:17;98324.00;;;14.96;59.69
42519;BME280;28147;47.520;18.920;2023-04-16T08:58:44;98319.78;;;15.10;59.94
42519;BME280;28147;47.520;18.920;2023-04-16T09:01:11;98317.66;;;15.12;60.04
42519;BME280;28147;47.520;18.920;2023-04-16T09:03:37;98317.16;;;15.36;60.15
42519;BME280;28147;47.520;18.920;2023-04-16T09:06:02;98323.59;;;15.40;58.32
42519;BME280;28147;47.520;18.920;2023-04-16T09:08:28;98324.38;;;15.30;57.57
42519;BME280;28147;47.520;18.920;2023-04-16T09:10:54;98314.94;;;15.07;60.50
42519;BME280;28147;47.520;18.920;2023-04-16T09:13:19;98319.00;;;15.20;58.57
42519;BME280;28147;47.520;18.920;2023-04-16T09:15:46;98324.78;;;14.81;59.12
42519;BME280;28147;47.520;18.920;2023-04-16T09:18:11;98319.00;;;15.25;59.24
42519;BME280;28147;47.520;18.920;2023-04-16T09:20:37;98332.03;;;14.86;59.94
42519;BME280;28147;47.520;18.920;2023-04-16T09:23:03;98331.25;;;14.85;59.58
42519;BME280;28147;47.520;18.920;2023-04-16T09:25:32;98331.38;;;14.58;59.74
42519;BME280;28147;47.520;18.920;2023-04-16T09:27:57;98329.91;;;14.88;58.98
42519;BME280;28147;47.520;18.920;2023-04-16T09:32:48;98339.97;;;14.60;58.78
42519;BME280;28147;47.520;18.920;2023-04-16T09:35:14;98338.72;;;14.78;59.24
42519;BME280;28147;47.520;18.920;2023-04-16T09:37:39;98341.72;;;14.97;59.15
42519;BME280;28147;47.520;18.920;2023-04-16T09:40:06;98343.66;;;15.22;59.15
42519;BME280;28147;47.520;18.920;2023-04-16T09:42:32;98343.13;;;15.20;57.56
42519;BME280;28147;47.520;18.920;2023-04-16T09:44:58;98351.94;;;15.15;57.51
42519;BME280;28147;47.520;18.920;2023-04-16T09:47:24;98344.91;;;14.89;58.70
42519;BME280;28147;47.520;18.920;2023-04-16T09:49:50;98345.78;;;15.04;57.74
42519;BME280;28147;47.520;18.920;2023-04-16T09:52:16;98350.38;;;15.24;57.72
42519;BME280;28147;47.520;18.920;2023-04-16T09:54:46;98347.84;;;14.92;58.24
42519;BME280;28147;47.520;18.920;2023-04-16T09:57:11;98349.75;;;14.92;56.87
42519;BME280;28147;47.520;18.920;2023-04-16T09:59:36;98347.63;;;14.99;57.94
42519;BME280;28147;47.520;18.920;2023-04-16T10:02:01;98350.84;;;15.01;57.74
42519;BME280;28147;47.520;18.920;2023-04-16T10:04:27;98346.06;;;15.08;59.19
42519;BME280;28147;47.520;18.920;2023-04-16T10:07:02;98342.53;;;15.02;57.02
42519;BME280;28147;47.520;18.920;2023-04-16T10:09:35;98347.66;;;15.09;55.63
42519;BME280;28147;47.520;18.920;2023-04-16T10:12:01;98351.19;;;15.25;55.50
42519;BME280;28147;47.520;18.920;2023-04-16T10:14:26;98347.19;;;15.43;54.56
42519;BME280;28147;47.520;18.920;2023-04-16T10:16:52;98356.06;;;15.64;54.97
42519;BME280;28147;47.520;18.920;2023-04-16T10:19:17;98344.28;;;15.65;54.04
42519;BME280;28147;47.520;18.920;2023-04-16T10:21:43;98341.91;;;15.68;53.88
42519;BME280;28147;47.520;18.920;2023-04-16T10:24:09;98343.47;;;15.54;54.42
42519;BME280;28147;47.520;18.920;2023-04-16T10:26:34;98340.56;;;15.91;54.71
42519;BME280;28147;47.520;18.920;2023-04-16T10:29:00;98340.25;;;16.13;53.11
42519;BME280;28147;47.520;18.920;2023-04-16T10:31:26;98341.31;;;16.02;52.75
42519;BME280;28147;47.520;18.920;2023-04-16T10:33:52;98338.59;;;16.33;52.96
42519;BME280;28147;47.520;18.920;2023-04-16T10:36:22;98335.38;;;16.41;53.03
42519;BME280;28147;47.520;18.920;2023-04-16T10:38:51;98331.38;;;16.23;52.83
42519;BME280;28147;47.520;18.920;2023-04-16T10:41:18;98335.38;;;16.30;54.33
42519;BME280;28147;47.520;18.920;2023-04-16T10:43:44;98330.00;;;16.30;54.99
42519;BME280;28147;47.520;18.920;2023-04-16T10:46:20;98331.56;;;16.57;52.99
42519;BME280;28147;47.520;18.920;2023-04-16T10:48:47;98325.09;;;16.58;55.18
42519;BME280;28147;47.520;18.920;2023-04-16T10:51:32;98334.03;;;16.28;52.98
42519;BME280;28147;47.520;18.920;2023-04-16T10:54:01;98328.94;;;16.32;53.83
42519;BME280;28147;47.520;18.920;2023-04-16T10:56:27;98314.69;;;16.36;53.27
42519;BME280;28147;47.520;18.920;2023-04-16T10:58:54;98317.00;;;17.23;53.38
42519;BME280;28147;47.520;18.920;2023-04-16T11:01:26;98319.09;;;17.36;51.26
42519;BME280;28147;47.520;18.920;2023-04-16T11:03:53;98315.06;;;17.68;50.42
42519;BME280;28147;47.520;18.920;2023-04-16T11:06:24;98308.75;;;17.88;50.59
42519;BME280;28147;47.520;18.920;2023-04-16T11:08:50;98304.34;;;18.26;49.22
42519;BME280;28147;47.520;18.920;2023-04-16T11:11:16;98306.72;;;18.04;48.37
42519;BME280;28147;47.520;18.920;2023-04-16T11:13:42;98313.16;;;17.73;49.12
42519;BME280;28147;47.520;18.920;2023-04-16T11:16:08;98305.78;;;18.18;48.33
42519;BME280;28147;47.520;18.920;2023-04-16T11:18:34;98298.91;;;18.31;47.36
42519;BME280;28147;47.520;18.920;2023-04-16T11:21:00;98310.31;;;17.94;48.27
42519;BME280;28147;47.520;18.920;2023-04-16T11:23:26;98297.28;;;18.30;46.93
42519;BME280;28147;47.520;18.920;2023-04-16T11:25:51;98300.88;;;18.44;47.83
42519;BME280;28147;47.520;18.920;2023-04-16T11:28:30;98298.91;;;17.73;49.21
42519;BME280;28147;47.520;18.920;2023-04-16T11:30:55;98286.94;;;18.13;48.51
42519;BME280;28147;47.520;18.920;2023-04-16T11:33:21;98300.63;;;18.46;49.59
42519;BME280;28147;47.520;18.920;2023-04-16T11:35:54;98293.56;;;18.26;49.19
42519;BME280;28147;47.520;18.920;2023-04-16T11:38:20;98293.34;;;18.22;50.10
42519;BME280;28147;47.520;18.920;2023-04-16T11:40:56;98302.94;;;17.75;49.20
42519;BME280;28147;47.520;18.920;2023-04-16T11:43:21;98306.72;;;17.35;48.88
42519;BME280;28147;47.520;18.920;2023-04-16T11:45:59;98292.53;;;16.70;50.15
42519;BME280;28147;47.520;18.920;2023-04-16T11:48:25;98301.22;;;17.50;50.43
42519;BME280;28147;47.520;18.920;2023-04-16T11:51:09;98299.69;;;17.79;49.84
42519;BME280;28147;47.520;18.920;2023-04-16T11:53:35;98296.78;;;17.70;50.40
42519;BME280;28147;47.520;18.920;2023-04-16T11:56:00;98295.81;;;17.90;48.36
42519;BME280;28147;47.520;18.920;2023-04-16T11:58:25;98298.19;;;17.62;48.44
42519;BME280;28147;47.520;18.920;2023-04-16T12:00:51;98292.31;;;17.55;48.20
42519;BME280;28147;47.520;18.920;2023-04-16T12:03:36;98301.25;;;17.45;48.32
42519;BME280;28147;47.520;18.920;2023-04-16T12:06:06;98293.84;;;17.95;47.43
42519;BME280;28147;47.520;18.920;2023-04-16T12:08:31;98303.69;;;17.42;48.53
42519;BME280;28147;47.520;18.920;2023-04-16T12:10:57;98294.63;;;17.67;49.36
42519;BME280;28147;47.520;18.920;2023-04-16T12:13:23;98293.66;;;17.92;49.65
42519;BME280;28147;47.520;18.920;2023-04-16T12:15:52;98286.25;;;18.03;49.40
42519;BME280;28147;47.520;18.920;2023-04-16T12:18:18;98291.31;;;17.80;49.89
42519;BME280;28147;47.520;18.920;2023-04-16T12:20:44;98288.47;;;17.61;48.46
42519;BME280;28147;47.520;18.920;2023-04-16T12:23:20;98288.22;;;17.23;47.45
42519;BME280;28147;47.520;18.920;2023-04-16T12:25:46;98286.66;;;17.17;47.44
42519;BME280;28147;47.520;18.920;2023-04-16T12:28:13;98287.41;;;17.62;47.44
42519;BME280;28147;47.520;18.920;2023-04-16T12:30:47;98281.97;;;17.67;47.68
42519;BME280;28147;47.520;18.920;2023-04-16T12:33:17;98284.78;;;17.52;47.21
42519;BME280;28147;47.520;18.920;2023-04-16T12:35:43;98284.38;;;17.35;49.58
42519;BME280;28147;47.520;18.920;2023-04-16T12:38:09;98278.19;;;17.34;48.84
42519;BME280;28147;47.520;18.920;2023-04-16T12:40:34;98273.31;;;17.75;48.87
42519;BME280;28147;47.520;18.920;2023-04-16T12:43:00;98277.06;;;17.74;48.07
42519;BME280;28147;47.520;18.920;2023-04-16T12:45:26;98269.50;;;17.82;48.48
42519;BME280;28147;47.520;18.920;2023-04-16T12:47:51;98271.47;;;18.00;48.86